PDT,Max TemperatureF,Mean TemperatureF,Min TemperatureF,Max Dew PointF,MeanDew PointF,Min DewpointF,Max Humidity, Mean Humidity, Min Humidity, Max Sea Level PressureIn, Mean Sea Level PressureIn, Min Sea Level PressureIn, Max VisibilityMiles, Mean VisibilityMiles, Min VisibilityMiles, Max Wind SpeedMPH, Mean Wind SpeedMPH, Max Gust SpeedMPH,PrecipitationIn, CloudCover, Events, WindDirDegrees
2012-9-1,69,61,53,54,52,50,93,75,57,30.02,29.97,29.94,10,10,9,59,6,115,0.00,5,,233
2012-9-2,86,67,47,56,52,45,100,63,25,30.00,29.95,29.86,10,5,0,13,5,24,0.00,4,Fog,205
2012-9-3,87,68,48,55,51,40,93,56,19,29.95,29.91,29.86,10,10,9,14,5,24,0.00,0,,195
2012-9-4,76,62,48,55,51,46,100,73,46,30.03,29.98,29.91,10,6,0,20,5,,0.00,3,Fog,204
2012-9-5,73,61,49,54,51,48,100,77,53,30.00,29.95,29.89,10,8,0,18,7,26,0.00,4,Fog,253
2012-9-6,75,63,50,54,50,47,93,70,46,30.00,29.95,29.91,10,10,10,15,9,22,0.00,0,,249
2012-9-7,79,64,48,54,49,45,93,66,39,30.07,30.01,29.96,10,10,10,18,7,25,0.00,0,,252
2012-9-8,76,63,50,54,50,47,93,65,36,30.04,29.98,29.91,10,10,10,18,8,35,0.00,0,,235
2012-9-9,80,62,44,54,49,43,100,69,37,29.98,29.92,29.84,10,10,10,18,9,23,0.00,1,,228
2012-9-10,83,69,55,55,53,50,93,64,34,29.94,29.86,29.78,10,10,10,15,6,18,0.00,3,,212
2012-9-11,76,64,52,56,54,51,93,70,46,29.95,29.87,29.82,10,9,6,22,7,59,0.00,2,,206
2012-9-12,76,63,50,56,53,48,100,75,50,30.08,30.00,29.93,10,6,0,16,6,62,0.00,4,Fog,230
2012-9-13,81,66,50,57,52,48,93,69,45,30.08,30.02,29.96,10,10,10,21,6,85,0.00,0,,198
2012-9-14,75,63,51,56,52,47,93,72,50,30.08,30.03,29.96,10,10,10,16,7,26,0.00,2,,239
2012-9-15,76,63,49,55,50,47,96,71,46,30.11,30.04,29.95,10,8,0,10,7,29,0.00,3,Fog,245
2012-9-16,75,59,43,53,49,42,100,71,41,30.06,30.00,29.93,10,9,0,13,5,35,0.00,2,Fog,210
2012-9-17,72,60,47,52,49,46,93,71,49,30.07,30.00,29.94,10,10,9,16,9,20,0.00,1,,247
2012-9-18,75,61,47,52,48,45,89,64,38,30.12,30.04,29.97,10,10,8,17,8,20,0.00,3,,261
2012-9-19,73,58,42,53,47,41,100,73,46,30.11,30.05,29.99,10,6,0,16,6,20,0.00,1,Fog,236
2012-9-20,74,59,43,52,48,42,93,70,46,30.06,30.00,29.93,10,9,2,17,5,21,0.00,0,,204
2012-9-21,78,60,41,53,48,39,96,67,37,29.98,29.93,29.85,10,9,1,13,4,24,0.00,0,,206
2012-9-22,82,63,43,52,47,41,100,66,31,29.92,29.88,29.83,10,8,0,13,3,15,0.00,0,Fog,203
2012-9-23,83,65,46,55,51,44,93,65,36,29.94,29.90,29.87,10,10,10,17,7,20,0.00,0,,194
2012-9-24,76,62,48,56,51,46,96,71,46,29.97,29.90,29.84,10,10,7,13,6,15,0.00,3,,231
2012-9-25,73,60,47,55,52,46,100,79,57,29.93,29.87,29.81,10,9,2,18,6,22,0.00,2,,203
2012-9-26,70,62,53,54,52,51,93,75,57,29.91,29.86,29.80,10,8,6,14,6,,0.00,4,,211
2012-9-27,81,64,46,57,51,45,100,70,39,29.94,29.87,29.79,10,6,0,12,4,20,0.00,1,Fog,203
2012-9-28,69,58,47,55,51,47,100,80,59,29.97,29.90,29.85,10,10,3,17,7,20,0.00,2,,221
2012-9-29,77,65,52,55,52,50,96,71,46,30.05,29.99,29.93,10,9,2,12,5,14,0.00,4,,230
2012-9-30,93,70,46,55,50,44,100,62,23,30.04,29.99,29.92,10,10,10,9,3,10,0.00,0,,179